createdAt,value
2023-02-19T00:00:10.995Z,100.00
2023-02-19T00:02:37.575Z,100.00
2023-02-19T00:05:04.135Z,99.63
2023-02-19T00:07:30.590Z,99.08
2023-02-19T00:09:57.014Z,99.28
2023-02-19T00:12:23.396Z,99.48
2023-02-19T00:14:49.798Z,99.24
2023-02-19T00:17:16.280Z,99.81
2023-02-19T00:19:42.774Z,100.00
2023-02-19T00:22:09.400Z,99.74
2023-02-19T00:24:35.842Z,100.00
2023-02-19T00:27:02.373Z,100.00
2023-02-19T00:29:29.040Z,100.00
2023-02-19T00:31:55.594Z,100.00
2023-02-19T00:34:22.153Z,100.00
2023-02-19T00:36:48.570Z,100.00
2023-02-19T00:39:15.976Z,100.00
2023-02-19T00:41:42.694Z,100.00
2023-02-19T00:44:10.003Z,100.00
2023-02-19T00:46:46.310Z,100.00
2023-02-19T00:49:19.664Z,100.00
2023-02-19T00:51:46.315Z,100.00
2023-02-19T00:54:12.849Z,100.00
2023-02-19T00:56:39.568Z,100.00
2023-02-19T00:59:06.098Z,100.00
2023-02-19T01:01:32.635Z,100.00
2023-02-19T01:03:59.056Z,100.00
2023-02-19T01:06:25.592Z,100.00
2023-02-19T01:08:51.985Z,100.00
2023-02-19T01:11:18.420Z,100.00
2023-02-19T01:13:44.884Z,100.00
2023-02-19T01:16:15.225Z,100.00
2023-02-19T01:18:41.929Z,100.00
2023-02-19T01:21:09.444Z,100.00
2023-02-19T01:23:36.249Z,100.00
2023-02-19T01:26:06.164Z,100.00
2023-02-19T01:28:32.925Z,100.00
2023-02-19T01:31:02.940Z,100.00
2023-02-19T01:33:29.523Z,100.00
2023-02-19T01:35:55.912Z,100.00
2023-02-19T01:38:22.314Z,100.00
2023-02-19T01:40:58.801Z,100.00
2023-02-19T01:43:25.269Z,100.00
2023-02-19T01:45:52.931Z,100.00
2023-02-19T01:48:38.194Z,100.00
2023-02-19T01:51:14.963Z,100.00
2023-02-19T01:53:42.324Z,100.00
2023-02-19T01:56:08.838Z,100.00
2023-02-19T01:58:35.430Z,100.00
2023-02-19T02:01:03.139Z,100.00
2023-02-19T02:03:29.682Z,100.00
2023-02-19T02:05:57.420Z,100.00
2023-02-19T02:08:23.915Z,100.00
2023-02-19T02:10:50.463Z,100.00
2023-02-19T02:13:16.859Z,100.00
2023-02-19T02:15:46.410Z,100.00
2023-02-19T02:18:18.754Z,100.00
2023-02-19T02:20:45.126Z,100.00
2023-02-19T02:23:35.471Z,100.00
2023-02-19T02:26:20.698Z,100.00
2023-02-19T02:28:50.305Z,100.00
2023-02-19T02:31:17.359Z,100.00
2023-02-19T02:33:46.974Z,100.00
2023-02-19T02:36:17.495Z,100.00
2023-02-19T02:38:44.293Z,100.00
2023-02-19T02:41:11.090Z,100.00
2023-02-19T02:43:37.808Z,100.00
2023-02-19T02:46:04.271Z,100.00
2023-02-19T02:48:39.434Z,100.00
2023-02-19T02:51:10.546Z,100.00
2023-02-19T02:53:39.469Z,100.00
2023-02-19T02:56:05.891Z,100.00
2023-02-19T02:58:32.337Z,100.00
2023-02-19T03:01:19.290Z,100.00
2023-02-19T03:03:45.986Z,100.00
2023-02-19T03:06:12.491Z,100.00
2023-02-19T03:08:50.224Z,100.00
2023-02-19T03:11:16.760Z,100.00
2023-02-19T03:13:43.441Z,100.00
2023-02-19T03:16:17.614Z,100.00
2023-02-19T03:18:44.587Z,100.00
2023-02-19T03:21:11.405Z,100.00
2023-02-19T03:23:38.272Z,100.00
2023-02-19T03:26:04.796Z,100.00
2023-02-19T03:28:32.590Z,100.00
2023-02-19T03:30:59.051Z,100.00
2023-02-19T03:33:26.578Z,100.00
2023-02-19T03:35:53.932Z,100.00
2023-02-19T03:38:21.518Z,100.00
2023-02-19T03:40:51.501Z,100.00
2023-02-19T03:43:19.278Z,100.00
2023-02-19T03:46:04.575Z,100.00
2023-02-19T03:48:31.065Z,100.00
2023-02-19T03:51:00.167Z,100.00
2023-02-19T03:53:34.679Z,100.00
2023-02-19T03:56:01.044Z,100.00
2023-02-19T03:58:32.743Z,100.00
2023-02-19T04:01:06.803Z,100.00
2023-02-19T04:03:51.968Z,100.00
2023-02-19T04:06:20.902Z,100.00
2023-02-19T04:08:49.624Z,100.00
2023-02-19T04:11:16.114Z,100.00
2023-02-19T04:14:02.844Z,100.00
2023-02-19T04:16:29.416Z,100.00
2023-02-19T04:19:14.865Z,100.00
2023-02-19T04:21:41.252Z,100.00
2023-02-19T04:24:09.916Z,100.00
2023-02-19T04:26:36.389Z,100.00
2023-02-19T04:29:02.909Z,100.00
2023-02-19T04:31:29.867Z,100.00
2023-02-19T04:33:56.564Z,100.00
2023-02-19T04:36:23.001Z,100.00
2023-02-19T04:38:49.422Z,100.00
2023-02-19T04:41:15.777Z,100.00
2023-02-19T04:43:42.294Z,100.00
2023-02-19T04:46:08.802Z,100.00
2023-02-19T04:48:35.359Z,100.00
2023-02-19T04:51:04.955Z,100.00
2023-02-19T04:53:31.430Z,100.00
2023-02-19T04:55:57.947Z,100.00
2023-02-19T04:58:24.369Z,100.00
2023-02-19T05:00:53.946Z,100.00
2023-02-19T05:03:20.359Z,100.00
2023-02-19T05:05:46.801Z,100.00
2023-02-19T05:08:13.237Z,100.00
2023-02-19T05:10:39.696Z,100.00
2023-02-19T05:13:06.068Z,100.00
2023-02-19T05:15:32.645Z,100.00
2023-02-19T05:17:59.085Z,100.00
2023-02-19T05:20:25.473Z,100.00
2023-02-19T05:22:51.981Z,100.00
2023-02-19T05:25:18.473Z,100.00
2023-02-19T05:27:45.051Z,100.00
2023-02-19T05:30:11.644Z,100.00
2023-02-19T05:32:38.119Z,100.00
2023-02-19T05:35:04.652Z,100.00
2023-02-19T05:37:31.065Z,100.00
2023-02-19T05:39:57.569Z,100.00
2023-02-19T05:42:24.112Z,100.00
2023-02-19T05:44:50.604Z,100.00
2023-02-19T05:47:17.014Z,100.00
2023-02-19T05:49:43.626Z,100.00
2023-02-19T05:52:10.114Z,100.00
2023-02-19T05:54:36.651Z,100.00
2023-02-19T05:57:03.062Z,100.00
2023-02-19T05:59:29.486Z,100.00
2023-02-19T06:01:55.875Z,100.00
2023-02-19T06:04:22.338Z,100.00
2023-02-19T06:06:49.096Z,100.00
2023-02-19T06:09:15.679Z,100.00
2023-02-19T06:11:42.102Z,100.00
2023-02-19T06:14:08.516Z,100.00
2023-02-19T06:16:34.983Z,100.00
2023-02-19T06:19:04.634Z,100.00
2023-02-19T06:21:31.121Z,100.00
2023-02-19T06:23:57.552Z,100.00
2023-02-19T06:26:24.240Z,100.00
2023-02-19T06:28:50.918Z,100.00
2023-02-19T06:31:17.647Z,100.00
2023-02-19T06:33:44.531Z,100.00
2023-02-19T06:36:14.770Z,100.00
2023-02-19T06:38:41.541Z,100.00
2023-02-19T06:41:08.296Z,100.00
2023-02-19T06:43:34.870Z,100.00
2023-02-19T06:46:02.042Z,100.00
2023-02-19T06:48:28.677Z,100.00
2023-02-19T06:50:55.189Z,100.00
2023-02-19T06:53:22.341Z,100.00
2023-02-19T06:55:58.580Z,100.00
2023-02-19T06:58:25.223Z,100.00
2023-02-19T07:00:51.879Z,100.00
2023-02-19T07:03:18.339Z,100.00
2023-02-19T07:05:44.741Z,100.00
2023-02-19T07:08:11.162Z,100.00
2023-02-19T07:10:37.598Z,100.00
2023-02-19T07:13:04.021Z,100.00
2023-02-19T07:15:30.671Z,100.00
2023-02-19T07:17:57.082Z,100.00
2023-02-19T07:20:23.616Z,100.00
2023-02-19T07:22:50.222Z,100.00
2023-02-19T07:25:16.908Z,100.00
2023-02-19T07:27:43.481Z,100.00
2023-02-19T07:30:10.494Z,100.00
2023-02-19T07:32:40.413Z,100.00
2023-02-19T07:35:07.309Z,100.00
2023-02-19T07:37:33.794Z,100.00
2023-02-19T07:40:00.235Z,100.00
2023-02-19T07:42:26.782Z,100.00
2023-02-19T07:44:53.441Z,100.00
2023-02-19T07:47:19.946Z,100.00
2023-02-19T07:49:46.376Z,99.14
2023-02-19T07:52:12.750Z,99.68
2023-02-19T07:54:39.260Z,98.40
2023-02-19T07:57:05.786Z,97.00
2023-02-19T07:59:32.266Z,97.77
2023-02-19T08:01:58.748Z,96.82
2023-02-19T08:04:25.284Z,97.68
2023-02-19T08:06:52.525Z,96.10
2023-02-19T08:09:19.099Z,96.42
2023-02-19T08:11:45.628Z,96.44
2023-02-19T08:14:12.037Z,95.81
2023-02-19T08:16:43.327Z,95.96
2023-02-19T08:19:10.036Z,96.93
2023-02-19T08:21:36.479Z,97.32
2023-02-19T08:24:02.990Z,96.27
2023-02-19T08:26:29.438Z,96.83
2023-02-19T08:28:55.969Z,95.80
2023-02-19T08:31:22.546Z,95.39
2023-02-19T08:33:49.095Z,94.44
2023-02-19T08:36:15.514Z,94.37
2023-02-19T08:38:41.906Z,94.30
2023-02-19T08:41:09.656Z,93.76
2023-02-19T08:43:36.508Z,95.14
2023-02-19T08:46:03.113Z,94.02
2023-02-19T08:48:29.711Z,94.16
2023-02-19T08:50:56.871Z,93.80
2023-02-19T08:53:23.419Z,92.50
2023-02-19T08:55:50.094Z,93.42
2023-02-19T08:58:16.662Z,92.60
2023-02-19T09:00:43.077Z,92.21
2023-02-19T09:03:09.590Z,90.85
2023-02-19T09:05:36.093Z,88.57
2023-02-19T09:08:02.568Z,87.67
2023-02-19T09:10:28.953Z,87.86
2023-02-19T09:12:55.503Z,87.37
2023-02-19T09:15:22.018Z,88.35
2023-02-19T09:17:52.130Z,89.20
2023-02-19T09:20:18.931Z,88.77
2023-02-19T09:22:45.534Z,86.87
2023-02-19T09:25:12.086Z,87.31
2023-02-19T09:27:38.664Z,88.75
2023-02-19T09:30:05.905Z,89.34
2023-02-19T09:32:32.630Z,90.16
2023-02-19T09:34:59.069Z,91.26
2023-02-19T09:37:28.712Z,91.48
2023-02-19T09:39:55.183Z,91.69
2023-02-19T09:42:22.748Z,92.20
2023-02-19T09:44:49.926Z,90.46
2023-02-19T09:47:17.532Z,90.50
2023-02-19T09:49:44.480Z,90.29
2023-02-19T09:52:30.258Z,90.17
2023-02-19T09:54:57.349Z,89.42
2023-02-19T09:57:23.749Z,88.08
2023-02-19T09:59:53.978Z,89.17
2023-02-19T10:02:24.030Z,88.99
2023-02-19T10:04:50.637Z,89.33
2023-02-19T10:07:18.488Z,88.67
2023-02-19T10:10:02.013Z,89.56
2023-02-19T10:12:29.456Z,89.28
2023-02-19T10:14:58.587Z,89.60
2023-02-19T10:17:25.853Z,88.96
2023-02-19T10:19:52.433Z,88.39
2023-02-19T10:22:19.376Z,88.34
2023-02-19T10:24:45.928Z,89.43
2023-02-19T10:27:13.190Z,89.61
2023-02-19T10:29:39.617Z,88.59
2023-02-19T10:32:18.417Z,89.66
2023-02-19T10:34:44.944Z,89.24
2023-02-19T10:37:13.395Z,88.20
2023-02-19T10:39:41.328Z,88.80
2023-02-19T10:42:14.113Z,89.81
2023-02-19T10:44:42.503Z,89.12
2023-02-19T10:47:08.874Z,89.22
2023-02-19T10:49:36.001Z,88.71
2023-02-19T10:52:03.233Z,89.45
2023-02-19T10:54:30.382Z,89.23
2023-02-19T10:57:17.028Z,89.53
2023-02-19T11:00:02.757Z,88.61
2023-02-19T11:02:29.616Z,88.63
2023-02-19T11:05:03.646Z,87.77
2023-02-19T11:07:30.062Z,87.76
2023-02-19T11:09:56.574Z,87.27
2023-02-19T11:12:26.938Z,87.17
2023-02-19T11:14:53.432Z,87.08
2023-02-19T11:17:27.188Z,86.45
2023-02-19T11:19:54.120Z,87.57
2023-02-19T11:22:27.067Z,86.29
2023-02-19T11:24:57.259Z,86.58
2023-02-19T11:27:24.607Z,86.42
2023-02-19T11:29:51.048Z,86.32
2023-02-19T11:32:20.812Z,86.37
2023-02-19T11:34:47.585Z,85.04
2023-02-19T11:37:17.204Z,85.60
2023-02-19T11:39:44.443Z,85.20
2023-02-19T11:42:29.807Z,84.63
2023-02-19T11:45:04.728Z,84.92
2023-02-19T11:47:50.028Z,83.71
2023-02-19T11:50:35.176Z,85.08
2023-02-19T11:53:12.246Z,84.05
2023-02-19T11:55:38.895Z,84.89
2023-02-19T11:58:08.297Z,84.42
2023-02-19T12:00:36.432Z,84.64
2023-02-19T12:03:38.537Z,84.58
2023-02-19T12:06:31.264Z,83.26
2023-02-19T12:08:57.734Z,83.25
2023-02-19T12:11:50.648Z,84.50
2023-02-19T12:14:17.065Z,84.15
2023-02-19T12:16:54.973Z,84.10
2023-02-19T12:19:27.624Z,84.28
2023-02-19T12:22:05.883Z,83.82
2023-02-19T12:24:32.598Z,83.67
2023-02-19T12:27:01.926Z,84.25
2023-02-19T12:29:43.507Z,83.73
2023-02-19T12:32:15.874Z,82.80
2023-02-19T12:34:42.311Z,83.55
2023-02-19T12:37:24.128Z,83.23
2023-02-19T12:39:50.549Z,82.78
2023-02-19T12:42:16.957Z,83.62
2023-02-19T12:44:47.620Z,83.56
2023-02-19T12:47:21.429Z,82.16
2023-02-19T12:49:54.595Z,82.91
2023-02-19T12:52:25.671Z,81.73
2023-02-19T12:54:55.661Z,81.48
2023-02-19T12:57:26.446Z,82.42
2023-02-19T12:59:58.955Z,81.76
2023-02-19T13:02:31.235Z,80.98
2023-02-19T13:04:58.956Z,81.11
2023-02-19T13:07:31.166Z,81.68
2023-02-19T13:10:04.304Z,81.56
2023-02-19T13:12:32.644Z,79.50
2023-02-19T13:15:02.771Z,80.35
2023-02-19T13:17:43.912Z,79.37
2023-02-19T13:20:20.245Z,79.74
2023-02-19T13:22:50.367Z,80.01
2023-02-19T13:25:16.803Z,79.72
2023-02-19T13:27:57.480Z,80.27
2023-02-19T13:30:32.723Z,79.81
2023-02-19T13:33:02.271Z,80.46
2023-02-19T13:35:40.710Z,80.48
2023-02-19T13:38:08.136Z,80.87
2023-02-19T13:40:35.529Z,82.71
2023-02-19T13:43:02.918Z,82.76
2023-02-19T13:45:39.188Z,81.96
2023-02-19T13:48:23.843Z,82.19
2023-02-19T13:50:52.489Z,82.57
2023-02-19T13:53:54.522Z,82.14
2023-02-19T13:56:41.248Z,81.65
2023-02-19T13:59:10.562Z,80.91
2023-02-19T14:01:55.590Z,80.26
2023-02-19T14:04:25.699Z,80.10
2023-02-19T14:07:04.534Z,81.05
2023-02-19T14:09:51.140Z,80.55
2023-02-19T14:12:17.520Z,79.37
2023-02-19T14:14:46.963Z,78.67
2023-02-19T14:17:30.606Z,78.85
2023-02-19T14:19:57.072Z,78.24
2023-02-19T14:22:42.058Z,78.56
2023-02-19T14:25:09.478Z,77.95
2023-02-19T14:27:37.046Z,77.99
2023-02-19T14:30:03.906Z,78.36
2023-02-19T14:32:30.297Z,78.76
2023-02-19T14:34:56.708Z,78.98
2023-02-19T14:37:23.124Z,78.00
2023-02-19T14:39:49.556Z,77.24
2023-02-19T14:42:16.825Z,78.25
2023-02-19T14:44:46.010Z,79.43
2023-02-19T14:47:16.942Z,79.47
2023-02-19T14:49:44.488Z,79.50
2023-02-19T14:52:23.192Z,79.19
2023-02-19T14:54:49.655Z,79.38
2023-02-19T14:57:20.604Z,79.58
2023-02-19T14:59:54.233Z,79.40
2023-02-19T15:02:20.661Z,78.92
2023-02-19T15:04:47.089Z,78.60
2023-02-19T15:07:14.703Z,78.95
2023-02-19T15:09:42.287Z,79.98
2023-02-19T15:12:13.381Z,79.49
2023-02-19T15:14:39.839Z,80.47
2023-02-19T15:17:06.397Z,79.93
2023-02-19T15:19:33.723Z,80.38
2023-02-19T15:22:00.257Z,78.81
2023-02-19T15:24:26.842Z,79.46
2023-02-19T15:26:53.471Z,79.55
2023-02-19T15:29:24.135Z,80.17
2023-02-19T15:31:51.471Z,79.04
2023-02-19T15:34:20.951Z,79.80
2023-02-19T15:36:47.943Z,79.48
2023-02-19T15:39:23.093Z,80.96
2023-02-19T15:42:00.301Z,79.27
2023-02-19T15:44:47.515Z,79.56
2023-02-19T15:47:15.547Z,79.39
2023-02-19T15:49:44.556Z,80.16
2023-02-19T15:52:11.397Z,80.43
2023-02-19T15:54:41.617Z,80.94
2023-02-19T15:57:08.832Z,80.76
2023-02-19T15:59:55.470Z,80.98
2023-02-19T16:02:22.075Z,80.80
2023-02-19T16:04:48.992Z,81.60
2023-02-19T16:07:31.112Z,80.86
2023-02-19T16:10:16.463Z,80.51
2023-02-19T16:12:42.983Z,80.77
2023-02-19T16:15:18.868Z,80.71
2023-02-19T16:17:45.285Z,82.07
2023-02-19T16:20:31.528Z,83.77
2023-02-19T16:22:59.262Z,84.56
2023-02-19T16:25:25.712Z,84.15
2023-02-19T16:27:52.188Z,84.76
2023-02-19T16:30:23.503Z,86.47
2023-02-19T16:32:49.992Z,87.46
2023-02-19T16:35:36.000Z,90.08
2023-02-19T16:38:02.542Z,91.01
2023-02-19T16:40:35.340Z,90.53
2023-02-19T16:43:04.818Z,91.85
2023-02-19T16:45:31.361Z,91.32
2023-02-19T16:47:57.934Z,92.03
2023-02-19T16:50:24.571Z,91.98
2023-02-19T16:52:54.363Z,92.13
2023-02-19T16:55:20.814Z,91.20
2023-02-19T16:57:47.521Z,92.85
2023-02-19T17:00:18.114Z,92.37
2023-02-19T17:02:46.012Z,92.58
2023-02-19T17:05:12.428Z,93.81
2023-02-19T17:07:38.778Z,92.74
2023-02-19T17:10:05.745Z,93.57
2023-02-19T17:12:32.247Z,93.57
2023-02-19T17:14:58.971Z,93.98
2023-02-19T17:17:25.532Z,93.73
2023-02-19T17:19:51.988Z,93.93
2023-02-19T17:22:18.431Z,94.87
2023-02-19T17:24:44.897Z,95.50
2023-02-19T17:27:11.817Z,95.85
2023-02-19T17:29:38.638Z,96.99
2023-02-19T17:32:06.327Z,96.25
2023-02-19T17:34:32.888Z,95.94
2023-02-19T17:36:59.326Z,96.74
2023-02-19T17:39:25.809Z,95.45
2023-02-19T17:41:52.189Z,96.80
2023-02-19T17:44:18.907Z,97.08
2023-02-19T17:46:46.252Z,96.25
2023-02-19T17:49:12.674Z,95.78
2023-02-19T17:51:39.107Z,96.56
2023-02-19T17:54:08.232Z,95.84
2023-02-19T17:56:35.060Z,95.59
2023-02-19T17:59:01.816Z,95.40
2023-02-19T18:01:28.305Z,96.79
2023-02-19T18:03:54.863Z,96.90
2023-02-19T18:06:21.357Z,96.29
2023-02-19T18:08:51.237Z,96.47
2023-02-19T18:11:17.766Z,95.49
2023-02-19T18:13:44.276Z,95.92
2023-02-19T18:16:11.056Z,96.23
2023-02-19T18:18:37.485Z,95.74
2023-02-19T18:21:04.308Z,95.48
2023-02-19T18:23:30.693Z,96.48
2023-02-19T18:25:57.073Z,95.91
2023-02-19T18:28:24.007Z,94.90
2023-02-19T18:30:50.591Z,94.01
2023-02-19T18:33:17.217Z,93.68
2023-02-19T18:35:43.624Z,94.04
2023-02-19T18:38:10.037Z,94.14
2023-02-19T18:40:36.496Z,94.00
2023-02-19T18:43:03.111Z,94.18
2023-02-19T18:45:29.637Z,92.97
2023-02-19T18:47:56.221Z,94.21
2023-02-19T18:50:22.688Z,93.91
2023-02-19T18:52:49.124Z,93.71
2023-02-19T18:55:15.591Z,93.96
2023-02-19T18:57:41.943Z,92.89
2023-02-19T19:00:09.470Z,93.59
2023-02-19T19:02:48.447Z,93.74
2023-02-19T19:05:18.838Z,93.94
2023-02-19T19:07:45.320Z,92.84
2023-02-19T19:10:11.807Z,92.93
2023-02-19T19:12:38.582Z,92.97
2023-02-19T19:15:05.187Z,92.33
2023-02-19T19:17:31.632Z,92.25
2023-02-19T19:19:58.113Z,92.33
2023-02-19T19:22:24.579Z,92.28
2023-02-19T19:24:51.103Z,91.37
2023-02-19T19:27:20.960Z,91.45
2023-02-19T19:29:47.644Z,90.80
2023-02-19T19:32:14.211Z,91.02
2023-02-19T19:34:41.163Z,91.09
2023-02-19T19:37:08.039Z,91.40
2023-02-19T19:39:34.460Z,91.78
2023-02-19T19:42:00.869Z,91.44
2023-02-19T19:44:27.393Z,91.71
2023-02-19T19:46:53.903Z,90.78
2023-02-19T19:49:20.515Z,91.57
2023-02-19T19:51:46.989Z,90.88
2023-02-19T19:54:13.670Z,91.41
2023-02-19T19:56:42.600Z,90.42
2023-02-19T19:59:10.027Z,91.52
2023-02-19T20:01:36.571Z,91.74
2023-02-19T20:04:02.978Z,92.38
2023-02-19T20:06:29.822Z,92.87
2023-02-19T20:08:56.307Z,93.20
2023-02-19T20:11:22.852Z,93.05
2023-02-19T20:13:49.282Z,93.11
2023-02-19T20:16:16.148Z,93.21
2023-02-19T20:18:42.668Z,93.45
2023-02-19T20:21:09.645Z,93.73
2023-02-19T20:23:37.971Z,92.62
2023-02-19T20:26:04.698Z,93.91
2023-02-19T20:28:31.301Z,92.81
2023-02-19T20:30:57.995Z,92.49
2023-02-19T20:33:24.486Z,92.17
2023-02-19T20:35:50.966Z,92.40
2023-02-19T20:38:17.459Z,91.18
2023-02-19T20:40:43.873Z,90.98
2023-02-19T20:43:10.279Z,91.43
2023-02-19T20:45:36.715Z,92.15
2023-02-19T20:48:03.231Z,91.55
2023-02-19T20:50:29.702Z,91.44
2023-02-19T20:52:56.097Z,91.83
2023-02-19T20:55:22.513Z,92.01
2023-02-19T20:57:48.944Z,90.78
2023-02-19T21:00:15.578Z,91.80
2023-02-19T21:02:42.504Z,90.86
2023-02-19T21:05:09.014Z,91.79
2023-02-19T21:07:35.780Z,91.83
2023-02-19T21:10:02.171Z,92.41
2023-02-19T21:12:28.643Z,92.92
2023-02-19T21:14:55.088Z,92.74
2023-02-19T21:17:21.636Z,92.32
2023-02-19T21:19:50.163Z,91.68
2023-02-19T21:22:16.873Z,92.30
2023-02-19T21:24:43.301Z,91.34
2023-02-19T21:27:09.747Z,91.88
2023-02-19T21:29:36.150Z,92.14
2023-02-19T21:32:02.752Z,91.56
2023-02-19T21:34:29.761Z,91.02
2023-02-19T21:36:56.237Z,90.97
2023-02-19T21:39:23.382Z,91.31
2023-02-19T21:41:49.781Z,91.50
2023-02-19T21:44:16.262Z,90.27
2023-02-19T21:46:42.796Z,89.48
2023-02-19T21:49:09.649Z,89.92
2023-02-19T21:51:36.873Z,89.63
2023-02-19T21:54:03.775Z,90.84
2023-02-19T21:56:31.030Z,89.89
2023-02-19T21:58:57.522Z,90.42
2023-02-19T22:01:24.401Z,89.46
2023-02-19T22:03:50.852Z,90.21
2023-02-19T22:06:17.482Z,90.83
2023-02-19T22:08:44.022Z,90.49
2023-02-19T22:11:10.424Z,90.61
2023-02-19T22:13:36.975Z,90.22
2023-02-19T22:16:03.475Z,89.73
2023-02-19T22:18:29.990Z,89.26
2023-02-19T22:20:56.520Z,89.51
2023-02-19T22:23:23.068Z,89.69
2023-02-19T22:25:49.549Z,90.45
2023-02-19T22:28:16.031Z,90.77
2023-02-19T22:30:42.491Z,90.45
2023-02-19T22:33:09.535Z,89.51
2023-02-19T22:35:35.901Z,90.36
2023-02-19T22:38:02.287Z,89.77
2023-02-19T22:40:28.770Z,89.22
2023-02-19T22:42:55.364Z,89.55
2023-02-19T22:45:21.791Z,89.63
2023-02-19T22:47:48.264Z,88.88
2023-02-19T22:50:18.120Z,89.91
2023-02-19T22:52:44.582Z,89.33
2023-02-19T22:55:11.191Z,89.93
2023-02-19T22:57:37.660Z,88.86
2023-02-19T23:00:04.995Z,90.06
2023-02-19T23:02:31.456Z,90.25
2023-02-19T23:04:57.906Z,89.75
2023-02-19T23:07:24.627Z,90.56
2023-02-19T23:09:51.077Z,89.44
2023-02-19T23:12:17.482Z,89.84
2023-02-19T23:14:45.671Z,89.96
2023-02-19T23:17:12.178Z,90.09
2023-02-19T23:19:38.670Z,89.96
2023-02-19T23:22:05.332Z,90.25
2023-02-19T23:24:31.930Z,90.39
2023-02-19T23:26:58.367Z,89.27
2023-02-19T23:29:25.373Z,89.25
2023-02-19T23:31:52.093Z,90.33
2023-02-19T23:34:18.665Z,89.34
2023-02-19T23:36:45.854Z,90.29
2023-02-19T23:39:12.742Z,89.35
2023-02-19T23:41:39.234Z,89.99
2023-02-19T23:44:05.847Z,89.09
2023-02-19T23:46:32.307Z,90.47
2023-02-19T23:48:58.652Z,90.22
2023-02-19T23:51:25.442Z,90.04
2023-02-19T23:53:51.915Z,89.23
2023-02-19T23:56:24.758Z,90.35
2023-02-19T23:58:51.210Z,90.38
